createdAt,value
2018-07-12T00:01:20.946Z,2.23
2018-07-12T00:03:48.267Z,2.73
2018-07-12T00:06:15.592Z,4.50
2018-07-12T00:08:42.886Z,2.20
2018-07-12T00:11:10.195Z,2.40
2018-07-12T00:13:37.837Z,2.37
2018-07-12T00:16:05.167Z,2.70
2018-07-12T00:18:32.458Z,3.23
2018-07-12T00:21:00.042Z,2.30
2018-07-12T00:23:27.379Z,2.37
2018-07-12T00:25:54.689Z,2.30
2018-07-12T00:28:22.005Z,2.50
2018-07-12T00:30:49.309Z,2.90
2018-07-12T00:33:16.632Z,2.87
2018-07-12T00:35:43.933Z,2.90
2018-07-12T00:38:11.362Z,3.07
2018-07-12T00:40:38.654Z,3.27
2018-07-12T00:43:05.959Z,2.87
2018-07-12T00:45:33.245Z,3.00
2018-07-12T00:48:00.562Z,2.10
2018-07-12T00:50:27.854Z,2.87
2018-07-12T00:52:55.166Z,2.80
2018-07-12T00:55:22.474Z,2.23
2018-07-12T00:57:49.763Z,3.23
2018-07-12T01:00:17.096Z,2.97
2018-07-12T01:02:44.379Z,2.77
2018-07-12T01:05:11.692Z,2.33
2018-07-12T01:07:39.046Z,2.70
2018-07-12T01:10:06.357Z,2.50
2018-07-12T01:12:33.642Z,2.37
2018-07-12T01:15:00.946Z,3.30
2018-07-12T01:17:28.275Z,2.57
2018-07-12T01:19:55.571Z,3.43
2018-07-12T01:22:22.876Z,2.90
2018-07-12T01:24:50.169Z,3.40
2018-07-12T01:27:17.499Z,2.50
2018-07-12T01:29:44.784Z,2.33
2018-07-12T01:32:12.100Z,2.63
2018-07-12T01:34:39.378Z,2.33
2018-07-12T01:37:06.695Z,2.60
2018-07-12T01:39:33.984Z,2.90
2018-07-12T01:42:01.306Z,4.00
2018-07-12T01:44:28.657Z,2.27
2018-07-12T01:46:55.949Z,2.33
2018-07-12T01:49:23.255Z,2.43
2018-07-12T01:51:50.562Z,2.83
2018-07-12T01:54:17.867Z,2.80
2018-07-12T01:56:45.175Z,2.70
2018-07-12T01:59:12.486Z,2.50
2018-07-12T02:01:39.786Z,2.40
2018-07-12T02:04:07.121Z,2.60
2018-07-12T02:06:34.423Z,2.77
2018-07-12T02:09:01.732Z,3.33
2018-07-12T02:11:29.025Z,2.67
2018-07-12T02:13:56.329Z,3.50
2018-07-12T02:16:23.644Z,2.80
2018-07-12T02:18:50.989Z,3.30
2018-07-12T02:21:18.309Z,3.03
2018-07-12T02:23:46.141Z,3.30
2018-07-12T02:26:13.457Z,3.30
2018-07-12T02:28:40.786Z,2.80
2018-07-12T02:31:08.095Z,3.60
2018-07-12T02:33:35.511Z,2.40
2018-07-12T02:36:02.806Z,3.47
2018-07-12T02:38:30.438Z,2.93
2018-07-12T02:40:57.950Z,2.80
2018-07-12T02:43:25.267Z,2.47
2018-07-12T02:45:52.670Z,3.27
2018-07-12T02:48:19.982Z,3.20
2018-07-12T02:50:47.407Z,2.60
2018-07-12T02:53:14.734Z,3.27
2018-07-12T02:55:42.070Z,3.80
2018-07-12T02:58:09.387Z,2.73
2018-07-12T03:00:36.722Z,3.40
2018-07-12T03:03:04.276Z,2.83
2018-07-12T03:05:31.586Z,3.60
2018-07-12T03:07:58.885Z,2.70
2018-07-12T03:10:27.155Z,3.03
2018-07-12T03:12:54.461Z,3.03
2018-07-12T03:15:21.763Z,2.73
2018-07-12T03:17:49.081Z,3.93
2018-07-12T03:20:16.388Z,5.37
2018-07-12T03:22:43.689Z,3.40
2018-07-12T03:25:10.974Z,3.33
2018-07-12T03:27:38.393Z,2.50
2018-07-12T03:30:05.683Z,3.60
2018-07-12T03:32:32.995Z,3.73
2018-07-12T03:35:00.363Z,3.53
2018-07-12T03:37:27.709Z,3.27
2018-07-12T03:39:55.067Z,2.80
2018-07-12T03:42:22.455Z,3.90
2018-07-12T03:44:49.772Z,3.37
2018-07-12T03:47:17.062Z,4.03
2018-07-12T03:49:44.388Z,3.27
2018-07-12T03:52:11.879Z,3.10
2018-07-12T03:54:39.251Z,3.53
2018-07-12T03:57:06.535Z,3.27
2018-07-12T03:59:33.839Z,3.27
2018-07-12T04:02:01.131Z,3.93
2018-07-12T04:04:28.716Z,4.33
2018-07-12T04:06:56.119Z,3.60
2018-07-12T04:09:23.422Z,5.27
2018-07-12T04:11:50.840Z,3.67
2018-07-12T04:14:18.496Z,5.77
2018-07-12T04:16:45.906Z,6.83
2018-07-12T04:19:13.202Z,4.30
2018-07-12T04:21:40.517Z,4.27
2018-07-12T04:24:07.842Z,7.83
2018-07-12T04:26:35.159Z,4.40
2018-07-12T04:29:02.632Z,4.50
2018-07-12T04:31:29.934Z,3.90
2018-07-12T04:33:57.234Z,3.53
2018-07-12T04:36:24.553Z,4.10
2018-07-12T04:38:51.999Z,3.33
2018-07-12T04:41:19.331Z,3.97
2018-07-12T04:43:46.629Z,5.23
2018-07-12T04:46:14.008Z,4.13
2018-07-12T04:48:41.319Z,4.20
2018-07-12T04:51:08.632Z,5.17
2018-07-12T04:53:35.938Z,4.10
2018-07-12T04:56:03.247Z,3.63
2018-07-12T04:58:30.656Z,3.50
2018-07-12T05:00:57.950Z,5.03
2018-07-12T05:03:25.343Z,3.43
2018-07-12T05:05:52.668Z,4.03
2018-07-12T05:08:20.206Z,3.87
2018-07-12T05:10:47.637Z,4.47
2018-07-12T05:13:14.934Z,4.80
2018-07-12T05:15:42.232Z,5.23
2018-07-12T05:18:09.559Z,4.80
2018-07-12T05:20:36.994Z,4.17
2018-07-12T05:23:04.306Z,4.30
2018-07-12T05:25:31.663Z,5.47
2018-07-12T05:27:58.985Z,4.60
2018-07-12T05:30:26.278Z,4.73
2018-07-12T05:32:53.579Z,5.80
2018-07-12T05:35:21.024Z,4.03
2018-07-12T05:37:50.382Z,5.40
2018-07-12T05:40:18.980Z,5.00
2018-07-12T05:42:47.550Z,5.83
2018-07-12T05:45:16.057Z,5.50
2018-07-12T05:47:44.548Z,5.43
2018-07-12T05:50:13.761Z,6.37
2018-07-12T05:52:42.361Z,5.37
2018-07-12T05:55:11.742Z,7.73
2018-07-12T05:57:41.547Z,6.57
2018-07-12T06:00:10.051Z,5.57
2018-07-12T06:02:38.522Z,4.67
2018-07-12T06:05:07.322Z,4.80
2018-07-12T06:07:35.781Z,5.17
2018-07-12T06:10:04.748Z,5.50
2018-07-12T06:12:33.247Z,5.20
2018-07-12T06:15:01.776Z,6.90
2018-07-12T06:17:30.855Z,6.60
2018-07-12T06:19:59.339Z,5.63
2018-07-12T06:22:27.840Z,6.40
2018-07-12T06:24:56.654Z,5.30
2018-07-12T06:27:25.112Z,6.97
2018-07-12T06:29:53.632Z,6.90
2018-07-12T06:32:22.482Z,8.30
2018-07-12T06:34:51.055Z,6.93
2018-07-12T06:37:19.612Z,8.70
2018-07-12T06:39:48.281Z,11.40
2018-07-12T06:42:16.774Z,11.73
2018-07-12T06:44:45.867Z,8.37
2018-07-12T06:47:14.463Z,7.23
2018-07-12T06:49:42.951Z,8.30
2018-07-12T06:52:12.306Z,8.40
2018-07-12T06:54:40.776Z,8.37
2018-07-12T06:57:09.237Z,7.30
2018-07-12T06:59:38.078Z,9.10
2018-07-12T07:02:06.811Z,9.07
2018-07-12T07:04:35.314Z,10.80
2018-07-12T07:07:03.769Z,8.63
2018-07-12T07:09:32.239Z,12.33
2018-07-12T07:12:00.772Z,7.80
2018-07-12T07:14:29.287Z,8.37
2018-07-12T07:16:57.897Z,14.70
2018-07-12T07:19:26.363Z,12.43
2018-07-12T07:21:54.867Z,10.10
2018-07-12T07:24:23.470Z,15.63
2018-07-12T07:26:52.030Z,11.33
2018-07-12T07:29:20.554Z,12.33
2018-07-12T07:31:49.117Z,14.93
2018-07-12T07:34:17.623Z,12.73
2018-07-12T07:36:45.791Z,18.20
2018-07-12T07:39:14.328Z,15.67
2018-07-12T07:41:42.806Z,14.30
2018-07-12T07:44:11.299Z,21.40
2018-07-12T07:46:39.922Z,18.07
2018-07-12T07:49:08.397Z,16.33
2018-07-12T07:51:36.898Z,12.60
2018-07-12T07:54:05.821Z,13.93
2018-07-12T07:56:34.729Z,16.47
2018-07-12T07:59:04.091Z,10.93
2018-07-12T08:01:32.877Z,13.90
2018-07-12T08:04:01.356Z,12.80
2018-07-12T08:06:29.841Z,12.77
2018-07-12T08:08:58.110Z,14.53
2018-07-12T08:11:26.676Z,12.03
2018-07-12T08:13:55.251Z,14.00
2018-07-12T08:16:23.811Z,10.23
2018-07-12T08:18:52.229Z,13.07
2018-07-12T08:21:20.800Z,12.43
2018-07-12T08:23:49.285Z,18.00
2018-07-12T08:26:17.754Z,9.30
2018-07-12T08:28:46.346Z,9.10
2018-07-12T08:31:14.882Z,12.80
2018-07-12T08:33:43.365Z,9.80
2018-07-12T08:36:11.843Z,8.60
2018-07-12T08:38:40.306Z,11.93
2018-07-12T08:41:08.475Z,9.63
2018-07-12T08:43:36.992Z,9.83
2018-07-12T08:46:05.986Z,10.90
2018-07-12T08:48:34.477Z,9.00
2018-07-12T08:51:02.974Z,10.33
2018-07-12T08:53:31.498Z,10.07
2018-07-12T08:55:59.975Z,9.93
2018-07-12T08:58:28.503Z,10.40
2018-07-12T09:00:57.082Z,8.10
2018-07-12T09:03:25.543Z,8.37
2018-07-12T09:05:54.198Z,7.70
2018-07-12T09:08:22.679Z,8.53
2018-07-12T09:10:51.194Z,8.00
2018-07-12T09:13:19.667Z,8.50
2018-07-12T09:15:48.192Z,8.07
2018-07-12T09:18:16.784Z,7.90
2018-07-12T09:20:45.257Z,7.80
2018-07-12T09:23:13.708Z,9.13
2018-07-12T09:25:41.889Z,7.77
2018-07-12T09:28:10.410Z,6.80
2018-07-12T09:30:38.902Z,8.73
2018-07-12T09:33:07.542Z,6.80
2018-07-12T09:35:35.654Z,6.80
2018-07-12T09:38:04.937Z,7.77
2018-07-12T09:40:33.425Z,7.27
2018-07-12T09:43:01.961Z,7.33
2018-07-12T09:45:30.398Z,6.50
2018-07-12T09:47:58.870Z,7.03
2018-07-12T09:50:27.348Z,6.70
2018-07-12T09:52:55.817Z,6.47
2018-07-12T09:55:24.330Z,5.40
2018-07-12T09:58:04.144Z,5.47
2018-07-12T10:00:37.759Z,5.77
2018-07-12T10:03:11.833Z,5.30
2018-07-12T10:05:45.571Z,5.13
2018-07-12T10:08:19.346Z,6.63
2018-07-12T10:10:53.059Z,6.03
2018-07-12T10:13:30.570Z,5.30
2018-07-12T10:16:03.630Z,6.77
2018-07-12T10:18:33.108Z,5.57
2018-07-12T10:21:01.599Z,5.50
2018-07-12T10:23:30.072Z,5.93
2018-07-12T10:25:58.903Z,6.43
2018-07-12T10:28:27.443Z,5.70
2018-07-12T10:30:55.928Z,6.10
2018-07-12T10:33:24.402Z,4.97
2018-07-12T10:35:52.882Z,5.17
2018-07-12T10:38:21.427Z,5.90
2018-07-12T10:40:49.894Z,4.37
2018-07-12T10:43:18.354Z,4.80
2018-07-12T10:45:46.846Z,4.00
2018-07-12T10:48:15.326Z,3.77
2018-07-12T10:50:43.816Z,4.37
2018-07-12T10:53:12.290Z,4.00
2018-07-12T10:55:40.745Z,4.47
2018-07-12T10:58:09.243Z,5.20
2018-07-12T11:00:37.841Z,3.93
2018-07-12T11:03:06.547Z,5.27
2018-07-12T11:05:35.051Z,4.60
2018-07-12T11:08:03.592Z,4.97
2018-07-12T11:10:32.128Z,3.57
2018-07-12T11:13:10.515Z,3.57
2018-07-12T11:15:39.021Z,3.60
2018-07-12T11:18:08.392Z,3.10
2018-07-12T11:20:36.940Z,2.97
2018-07-12T11:23:05.581Z,2.50
2018-07-12T11:25:34.143Z,2.40
2018-07-12T11:28:03.080Z,2.20
2018-07-12T11:30:32.138Z,2.53
2018-07-12T11:33:01.287Z,2.37
2018-07-12T11:35:29.904Z,3.83
2018-07-12T11:37:58.390Z,2.77
2018-07-12T11:40:26.928Z,2.80
2018-07-12T11:42:55.392Z,2.37
2018-07-12T11:45:23.830Z,2.17
2018-07-12T11:47:52.584Z,2.90
2018-07-12T11:50:21.071Z,2.83
2018-07-12T11:52:49.595Z,2.77
2018-07-12T11:55:18.055Z,2.50
2018-07-12T11:57:46.619Z,3.23
2018-07-12T12:00:15.238Z,3.17
2018-07-12T12:02:44.038Z,4.57
2018-07-12T12:05:12.544Z,3.77
2018-07-12T12:07:41.168Z,4.07
2018-07-12T12:10:09.885Z,4.97
2018-07-12T12:12:38.486Z,4.00
2018-07-12T12:15:07.058Z,2.87
2018-07-12T12:17:35.720Z,3.40
2018-07-12T12:20:04.335Z,3.07
2018-07-12T12:22:32.868Z,3.63
2018-07-12T12:25:01.416Z,3.23
2018-07-12T12:27:29.967Z,3.30
2018-07-12T12:29:58.605Z,3.27
2018-07-12T12:32:27.088Z,3.10
2018-07-12T12:34:55.623Z,3.30
2018-07-12T12:37:24.071Z,4.80
2018-07-12T12:39:52.553Z,3.40
2018-07-12T12:42:21.040Z,8.10
2018-07-12T12:44:49.601Z,2.80
2018-07-12T12:47:18.116Z,3.00
2018-07-12T12:49:46.640Z,3.20
2018-07-12T12:52:15.435Z,3.37
2018-07-12T12:54:44.065Z,2.60
2018-07-12T12:57:12.540Z,4.00
2018-07-12T12:59:41.022Z,3.87
2018-07-12T13:02:09.601Z,3.50
2018-07-12T13:04:38.128Z,3.97
2018-07-12T13:07:06.614Z,3.83
2018-07-12T13:09:35.103Z,3.80
2018-07-12T13:12:03.840Z,3.10
2018-07-12T13:14:32.721Z,4.07
2018-07-12T13:17:01.191Z,3.07
2018-07-12T13:19:29.667Z,3.07
2018-07-12T13:21:59.140Z,3.73
2018-07-12T13:24:27.975Z,4.00
2018-07-12T13:26:56.488Z,3.63
2018-07-12T13:29:25.002Z,3.60
2018-07-12T13:31:53.552Z,3.30
2018-07-12T13:34:22.196Z,4.07
2018-07-12T13:36:51.056Z,3.90
2018-07-12T13:39:19.543Z,3.90
2018-07-12T13:41:48.062Z,4.33
2018-07-12T13:44:20.368Z,3.50
2018-07-12T13:46:50.217Z,3.57
2018-07-12T13:49:18.627Z,3.30
2018-07-12T13:51:48.620Z,3.50
2018-07-12T13:54:17.765Z,3.20
2018-07-12T13:56:46.711Z,3.23
2018-07-12T13:59:15.186Z,3.17
2018-07-12T14:01:43.658Z,3.17
2018-07-12T14:04:12.678Z,3.33
2018-07-12T14:06:41.148Z,3.50
2018-07-12T14:09:11.497Z,2.93
2018-07-12T14:11:40.356Z,3.37
2018-07-12T14:14:09.586Z,3.80
2018-07-12T14:16:38.143Z,3.90
2018-07-12T14:19:06.865Z,3.73
2018-07-12T14:21:35.290Z,3.63
2018-07-12T14:24:03.867Z,3.70
2018-07-12T14:26:32.490Z,6.13
2018-07-12T14:29:01.093Z,4.37
2018-07-12T14:31:29.605Z,4.00
2018-07-12T14:33:58.075Z,3.90
2018-07-12T14:36:26.586Z,5.60
2018-07-12T14:38:55.046Z,6.57
2018-07-12T14:41:23.721Z,4.57
2018-07-12T14:43:52.149Z,3.20
2018-07-12T14:46:20.827Z,3.70
2018-07-12T14:48:49.535Z,3.50
2018-07-12T14:51:18.391Z,4.27
2018-07-12T14:53:46.863Z,4.40
2018-07-12T14:56:15.517Z,4.13
2018-07-12T14:58:44.054Z,4.23
2018-07-12T15:01:12.658Z,3.90
2018-07-12T15:03:41.219Z,3.50
2018-07-12T15:06:09.699Z,3.70
2018-07-12T15:08:38.200Z,3.70
2018-07-12T15:11:06.699Z,3.80
2018-07-12T15:13:35.181Z,3.43
2018-07-12T15:16:03.637Z,3.03
2018-07-12T15:18:32.135Z,4.07
2018-07-12T15:21:01.512Z,6.67
2018-07-12T15:23:30.055Z,4.30
2018-07-12T15:25:58.695Z,3.93
2018-07-12T15:28:27.166Z,4.17
2018-07-12T15:30:55.762Z,3.67
2018-07-12T15:33:24.288Z,4.23
2018-07-12T15:35:52.867Z,5.57
2018-07-12T15:38:21.401Z,4.73
2018-07-12T15:40:49.938Z,3.57
2018-07-12T15:43:18.509Z,4.00
2018-07-12T15:45:47.163Z,4.23
2018-07-12T15:48:15.674Z,3.50
2018-07-12T15:50:44.164Z,3.40
2018-07-12T15:53:12.724Z,3.30
2018-07-12T15:55:41.189Z,3.27
2018-07-12T15:58:09.699Z,4.30
2018-07-12T16:00:38.185Z,3.50
2018-07-12T16:03:06.804Z,3.67
2018-07-12T16:05:35.288Z,3.37
2018-07-12T16:08:03.825Z,5.23
2018-07-12T16:10:32.441Z,5.00
2018-07-12T16:13:00.933Z,3.07
2018-07-12T16:15:29.470Z,3.80
2018-07-12T16:17:57.990Z,3.60
2018-07-12T16:20:26.574Z,3.80
2018-07-12T16:22:55.222Z,4.00
2018-07-12T16:25:23.738Z,3.30
2018-07-12T16:27:52.313Z,3.90
2018-07-12T16:30:20.839Z,3.70
2018-07-12T16:32:49.397Z,7.33
2018-07-12T16:35:17.938Z,3.37
2018-07-12T16:37:46.490Z,3.13
2018-07-12T16:40:14.938Z,3.40
2018-07-12T16:42:43.408Z,3.00
2018-07-12T16:45:11.886Z,3.17
2018-07-12T16:47:40.391Z,2.90
2018-07-12T16:50:08.871Z,2.63
2018-07-12T16:52:37.390Z,3.30
2018-07-12T16:55:06.041Z,3.00
2018-07-12T16:57:35.063Z,2.90
2018-07-12T17:00:03.603Z,2.30
2018-07-12T17:02:32.186Z,2.63
2018-07-12T17:05:00.674Z,3.23
2018-07-12T17:07:29.216Z,2.70
2018-07-12T17:09:57.696Z,2.30
2018-07-12T17:12:26.466Z,2.77
2018-07-12T17:14:55.008Z,2.77
2018-07-12T17:17:23.473Z,3.17
2018-07-12T17:19:51.960Z,3.37
2018-07-12T17:22:20.450Z,2.67
2018-07-12T17:24:48.942Z,3.23
2018-07-12T17:27:17.461Z,3.50
2018-07-12T17:29:46.617Z,2.97
2018-07-12T17:32:15.442Z,3.33
2018-07-12T17:34:43.967Z,2.50
2018-07-12T17:37:12.443Z,3.63
2018-07-12T17:39:40.955Z,2.53
2018-07-12T17:42:09.463Z,3.07
2018-07-12T17:44:38.030Z,11.20
2018-07-12T17:47:06.849Z,6.50
2018-07-12T17:49:35.418Z,7.97
2018-07-12T17:52:04.230Z,3.50
2018-07-12T17:54:32.854Z,4.07
2018-07-12T17:57:01.336Z,2.57
2018-07-12T17:59:31.091Z,2.93
2018-07-12T18:01:59.628Z,3.20
2018-07-12T18:04:28.104Z,2.53
2018-07-12T18:06:56.603Z,2.40
2018-07-12T18:09:25.093Z,2.40
2018-07-12T18:11:53.698Z,2.40
2018-07-12T18:14:22.321Z,2.10
2018-07-12T18:16:50.779Z,2.73
2018-07-12T18:19:19.264Z,5.73
2018-07-12T18:21:47.869Z,2.50
2018-07-12T18:24:16.362Z,4.30
2018-07-12T18:26:46.015Z,2.77
2018-07-12T18:29:14.490Z,3.03
2018-07-12T18:31:43.110Z,3.27
2018-07-12T18:34:11.811Z,3.90
2018-07-12T18:36:40.427Z,2.60
2018-07-12T18:39:09.695Z,2.70
2018-07-12T18:41:38.782Z,3.80
2018-07-12T18:44:07.648Z,2.30
2018-07-12T18:46:36.193Z,2.70
2018-07-12T18:49:05.850Z,3.07
2018-07-12T18:51:34.363Z,2.47
2018-07-12T18:54:02.905Z,3.40
2018-07-12T18:56:31.630Z,4.77
2018-07-12T18:59:00.213Z,2.47
2018-07-12T19:01:28.764Z,2.50
2018-07-12T19:03:57.447Z,2.20
2018-07-12T19:06:25.950Z,2.37
2018-07-12T19:08:54.453Z,2.93
2018-07-12T19:11:22.993Z,2.90
2018-07-12T19:13:51.494Z,3.37
2018-07-12T19:16:20.086Z,2.50
2018-07-12T19:18:48.747Z,2.10
2018-07-12T19:21:17.264Z,2.93
2018-07-12T19:23:46.338Z,3.30
2018-07-12T19:26:14.940Z,3.00
2018-07-12T19:28:43.427Z,2.20
2018-07-12T19:31:11.960Z,2.27
2018-07-12T19:33:40.531Z,3.30
2018-07-12T19:36:09.020Z,3.20
2018-07-12T19:38:37.510Z,3.17
2018-07-12T19:41:06.113Z,2.37
2018-07-12T19:43:34.673Z,2.90
2018-07-12T19:46:03.212Z,2.77
2018-07-12T19:48:31.742Z,2.90
2018-07-12T19:51:01.277Z,2.60
2018-07-12T19:53:30.194Z,2.37
2018-07-12T19:55:58.717Z,3.30
2018-07-12T19:58:27.408Z,2.60
2018-07-12T20:00:56.016Z,2.60
2018-07-12T20:03:24.670Z,2.50
2018-07-12T20:05:53.145Z,2.60
2018-07-12T20:08:21.776Z,2.30
2018-07-12T20:10:50.383Z,3.70
2018-07-12T20:13:19.137Z,4.57
2018-07-12T20:15:47.660Z,3.27
2018-07-12T20:18:16.231Z,4.13
2018-07-12T20:20:44.767Z,3.70
2018-07-12T20:23:13.292Z,3.10
2018-07-12T20:25:41.814Z,2.87
2018-07-12T20:28:10.402Z,3.37
2018-07-12T20:30:39.038Z,3.10
2018-07-12T20:33:07.616Z,2.83
2018-07-12T20:35:36.106Z,2.70
2018-07-12T20:38:04.625Z,2.70
2018-07-12T20:40:33.192Z,3.00
2018-07-12T20:43:01.825Z,3.20
2018-07-12T20:45:30.337Z,2.63
2018-07-12T20:47:58.824Z,2.87
2018-07-12T20:50:27.329Z,2.30
2018-07-12T20:52:57.816Z,3.37
2018-07-12T20:55:26.408Z,3.30
2018-07-12T20:57:54.981Z,3.47
2018-07-12T21:00:24.083Z,3.60
2018-07-12T21:02:52.699Z,3.03
2018-07-12T21:05:21.283Z,3.97
2018-07-12T21:07:49.833Z,3.40
2018-07-12T21:10:18.365Z,3.63
2018-07-12T21:12:47.203Z,2.70
2018-07-12T21:15:15.786Z,3.10
2018-07-12T21:17:44.376Z,3.00
2018-07-12T21:20:12.941Z,3.40
2018-07-12T21:22:41.431Z,3.27
2018-07-12T21:25:09.870Z,3.40
2018-07-12T21:27:38.433Z,3.17
2018-07-12T21:30:09.191Z,3.03
2018-07-12T21:32:37.607Z,4.77
2018-07-12T21:35:06.898Z,3.20
2018-07-12T21:37:35.417Z,3.80
2018-07-12T21:40:04.039Z,4.53
2018-07-12T21:42:32.523Z,5.80
2018-07-12T21:45:01.017Z,3.73
2018-07-12T21:47:29.525Z,4.30
2018-07-12T21:49:57.998Z,4.37
2018-07-12T21:52:26.552Z,3.80
2018-07-12T21:54:55.050Z,4.73
2018-07-12T21:57:23.554Z,6.60
2018-07-12T21:59:52.046Z,4.60
2018-07-12T22:02:20.509Z,5.67
2018-07-12T22:04:49.014Z,4.93
2018-07-12T22:08:16.841Z,4.93
2018-07-12T22:10:46.533Z,5.37
2018-07-12T22:13:15.958Z,5.87
2018-07-12T22:15:44.455Z,8.73
2018-07-12T22:18:12.962Z,5.63
2018-07-12T22:20:41.556Z,6.67
2018-07-12T22:23:10.060Z,6.77
2018-07-12T22:25:38.808Z,5.43
2018-07-12T22:28:07.789Z,6.57
2018-07-12T22:30:36.370Z,6.50
2018-07-12T22:33:05.438Z,7.30
2018-07-12T22:35:33.912Z,6.00
2018-07-12T22:38:03.323Z,6.10
2018-07-12T22:40:32.217Z,7.10
2018-07-12T22:43:00.730Z,5.93
2018-07-12T22:45:28.872Z,6.40
2018-07-12T22:47:57.728Z,5.50
2018-07-12T22:50:26.372Z,5.77
2018-07-12T22:52:54.894Z,8.47
2018-07-12T22:55:23.399Z,6.50
2018-07-12T22:57:51.887Z,5.13
2018-07-12T23:00:20.394Z,5.40
2018-07-12T23:02:48.846Z,6.67
2018-07-12T23:05:17.319Z,5.57
2018-07-12T23:07:45.772Z,5.40
2018-07-12T23:10:14.336Z,5.73
2018-07-12T23:12:42.798Z,6.47
2018-07-12T23:15:11.288Z,6.40
2018-07-12T23:17:39.758Z,6.27
2018-07-12T23:20:08.323Z,5.83
2018-07-12T23:22:36.882Z,6.20
2018-07-12T23:25:05.404Z,6.40
2018-07-12T23:27:33.948Z,5.80
2018-07-12T23:30:02.402Z,6.73
2018-07-12T23:32:30.864Z,5.80
2018-07-12T23:34:59.306Z,6.10
2018-07-12T23:37:27.795Z,6.90
2018-07-12T23:39:56.239Z,6.43
2018-07-12T23:42:24.405Z,5.60
2018-07-12T23:44:52.858Z,6.13
2018-07-12T23:47:21.329Z,5.83
2018-07-12T23:49:49.795Z,6.00
2018-07-12T23:52:18.290Z,5.90
2018-07-12T23:54:46.763Z,6.20
2018-07-12T23:57:15.356Z,5.93
2018-07-12T23:59:43.822Z,6.13
